| time (UTC) | temp F | wind direction | speed MPH | gust MPH | rain 1hr in | rain 24hr in | rain mn in | humidity % | barometer mb |
| 20260504050106 | 58 | 287 | 1.0 | 2.0 | 0.00 | 0.00 | 0.00 | 78 | 1007.9 |
| 20260504044602 | 58 | 291 | 2.0 | 3.0 | 0.00 | 0.00 | 0.00 | 76 | 1008.3 |
| 20260504043059 | 59 | 294 | 2.0 | 4.0 | 0.00 | 0.00 | 0.00 | 75 | 1008.6 |
| 20260504041601 | 58 | 294 | 2.0 | 4.0 | 0.00 | 0.00 | 0.00 | 75 | 1008.8 |
| 20260504034558 | 59 | 289 | 1.0 | 2.0 | 0.00 | 0.00 | 0.00 | 73 | 1009.0 |
| 20260504033056 | 59 | 355 | 3.0 | 4.0 | 0.00 | 0.00 | 0.00 | 73 | 1008.9 |
| 20260504031556 | 60 | 270 | 2.0 | 3.0 | 0.00 | 0.00 | 0.00 | 72 | 1009.2 |
| 20260504030055 | 60 | 268 | 1.0 | 4.0 | 0.00 | 0.00 | 0.00 | 70 | 1009.1 |
| 20260504024609 | 61 | 283 | 1.0 | 4.0 | 0.00 | 0.00 | 0.00 | 69 | 1009.1 |
| 20260504023054 | 62 | 269 | 3.0 | 7.0 | 0.00 | 0.00 | 0.00 | 67 | 1009.1 |
| 20260504021554 | 61 | 319 | 2.0 | 4.0 | 0.00 | 0.00 | 0.00 | 69 | 1009.2 |
| 20260504020055 | 61 | 343 | 1.0 | 3.0 | 0.00 | 0.00 | 0.00 | 71 | 1009.1 |
| 20260504014558 | 61 | 345 | 0.0 | 0.0 | 0.00 | 0.00 | 0.00 | 70 | 1009.1 |
| 20260504013055 | 62 | 343 | 0.0 | 0.0 | 0.00 | 0.00 | 0.00 | 67 | 1008.9 |
| 20260504011552 | 64 | 343 | 0.0 | 2.0 | 0.00 | 0.00 | 0.00 | 64 | 1008.6 |
| 20260504010055 | 66 | 346 | 0.0 | 3.0 | 0.00 | 0.00 | 0.00 | 61 | 1008.5 |
| 20260504004550 | 66 | 355 | 0.0 | 2.0 | 0.00 | 0.00 | 0.00 | 59 | 1008.7 |
| 20260504003053 | 68 | 355 | 0.0 | 3.0 | 0.00 | 0.00 | 0.00 | 57 | 1008.4 |
| 20260504001649 | 68 | 355 | 0.0 | 3.0 | 0.00 | 0.00 | 0.00 | 56 | 1008.4 |
| 20260504000113 | 69 | 344 | 0.0 | 4.0 | 0.00 | 0.00 | 0.00 | 53 | 1008.2 |
| 20260503234553 | 68 | 300 | 2.0 | 6.0 | 0.00 | 0.00 | 0.00 | 53 | 1008.3 |
| 20260503233046 | 69 | 355 | 3.0 | 9.0 | 0.00 | 0.00 | 0.00 | 51 | 1008.6 |
| 20260503231547 | 69 | 264 | 3.0 | 11.0 | 0.00 | 0.00 | 0.00 | 51 | 1008.5 |
| 20260503230046 | 70 | 306 | 7.0 | 14.0 | 0.00 | 0.00 | 0.00 | 48 | 1008.1 |
| 20260503224544 | 69 | 291 | 8.0 | 12.0 | 0.00 | 0.00 | 0.00 | 48 | 1008.4 |
| 20260503223040 | 69 | 272 | 7.0 | 11.0 | 0.00 | 0.00 | 0.00 | 47 | 1009.1 |
| 20260503221548 | 69 | 288 | 6.0 | 14.0 | 0.00 | 0.00 | 0.00 | 47 | 1009.1 |
| 20260503220039 | 69 | 355 | 7.0 | 14.0 | 0.00 | 0.00 | 0.00 | 46 | 1009.1 |
| 20260503214541 | 69 | 287 | 9.0 | 16.0 | 0.00 | 0.00 | 0.00 | 46 | 1009.3 |
| 20260503213033 | 68 | 355 | 10.0 | 17.0 | 0.00 | 0.00 | 0.00 | 47 | 1009.2 |
| 20260503211533 | 68 | 355 | 9.0 | 17.0 | 0.00 | 0.00 | 0.00 | 47 | 1009.3 |
| 20260503210031 | 68 | 310 | 10.0 | 17.0 | 0.00 | 0.00 | 0.00 | 48 | 1009.8 |
| 20260503204527 | 68 | 314 | 10.0 | 16.0 | 0.00 | 0.00 | 0.00 | 48 | 1010.3 |
| 20260503203038 | 66 | 286 | 8.0 | 15.0 | 0.00 | 0.00 | 0.00 | 48 | 1010.7 |
| 20260503201532 | 66 | 350 | 12.0 | 20.0 | 0.00 | 0.00 | 0.00 | 47 | 1011.0 |
| 20260503200024 | 66 | 260 | 14.0 | 20.0 | 0.00 | 0.00 | 0.00 | 48 | 1010.8 |
| 20260503194523 | 66 | 278 | 12.0 | 22.0 | 0.00 | 0.00 | 0.00 | 49 | 1011.2 |
| 20260503193022 | 66 | 355 | 13.0 | 22.0 | 0.00 | 0.00 | 0.00 | 48 | 1010.6 |
| 20260503191518 | 66 | 355 | 12.0 | 25.0 | 0.00 | 0.00 | 0.00 | 50 | 1011.3 |
| 20260503190018 | 66 | 355 | 15.0 | 23.0 | 0.00 | 0.00 | 0.00 | 49 | 1011.5 |
| 20260503184514 | 67 | 282 | 17.0 | 24.0 | 0.00 | 0.00 | 0.00 | 48 | 1011.8 |
| 20260503183011 | 66 | 269 | 13.0 | 20.0 | 0.00 | 0.00 | 0.00 | 51 | 1012.4 |
| 20260503181506 | 62 | 278 | 10.0 | 22.0 | 0.00 | 0.00 | 0.00 | 53 | 1013.0 |
| 20260503180005 | 63 | 269 | 9.0 | 16.0 | 0.00 | 0.00 | 0.00 | 52 | 1013.9 |
| 20260503174508 | 63 | 355 | 13.0 | 21.0 | 0.00 | 0.00 | 0.00 | 52 | 1013.5 |
| 20260503173004 | 62 | 295 | 14.0 | 20.0 | 0.00 | 0.00 | 0.00 | 55 | 1013.7 |
| 20260503171603 | 61 | 312 | 13.0 | 18.0 | 0.00 | 0.00 | 0.00 | 54 | 1014.2 |
| 20260503081536 | 43 | 355 | 4.0 | 6.0 | 0.00 | 0.00 | 0.00 | 78 | 1018.2 |
| 20260503071529 | 43 | 355 | 4.0 | 6.0 | 0.00 | 0.00 | 0.00 | 78 | 1018.4 |